sensor_id;sensor_type;location;lat;lon;timestamp;pressure;altitude;pressure_sealevel;temperature;humidity
28428;BME280;15662;49.128;8.520;2023-04-27T00:01:54;100574.91;;;14.93;41.52
28428;BME280;15662;49.128;8.520;2023-04-27T00:04:23;100566.06;;;14.91;41.47
28428;BME280;15662;49.128;8.520;2023-04-27T00:06:52;100564.44;;;14.87;41.39
28428;BME280;15662;49.128;8.520;2023-04-27T00:09:20;100562.69;;;14.88;41.49
28428;BME280;15662;49.128;8.520;2023-04-27T00:11:48;100568.91;;;14.87;41.43
28428;BME280;15662;49.128;8.520;2023-04-27T00:14:15;100568.91;;;14.87;41.34
28428;BME280;15662;49.128;8.520;2023-04-27T00:16:43;100565.34;;;14.88;41.34
28428;BME280;15662;49.128;8.520;2023-04-27T00:19:11;100554.00;;;14.83;41.29
28428;BME280;15662;49.128;8.520;2023-04-27T00:21:41;100563.94;;;14.78;41.33
28428;BME280;15662;49.128;8.520;2023-04-27T00:24:08;100555.06;;;14.77;41.26
28428;BME280;15662;49.128;8.520;2023-04-27T00:26:36;100560.50;;;14.76;41.22
28428;BME280;15662;49.128;8.520;2023-04-27T00:29:04;100556.19;;;14.71;41.27
28428;BME280;15662;49.128;8.520;2023-04-27T00:31:31;100552.75;;;14.69;41.34
28428;BME280;15662;49.128;8.520;2023-04-27T00:33:59;100542.34;;;14.62;41.28
28428;BME280;15662;49.128;8.520;2023-04-27T00:36:27;100553.09;;;14.60;41.28
28428;BME280;15662;49.128;8.520;2023-04-27T00:38:55;100551.63;;;14.53;41.52
28428;BME280;15662;49.128;8.520;2023-04-27T00:41:24;100556.00;;;14.54;41.48
28428;BME280;15662;49.128;8.520;2023-04-27T00:43:51;100555.31;;;14.49;41.47
28428;BME280;15662;49.128;8.520;2023-04-27T00:46:20;100556.25;;;14.46;41.62
28428;BME280;15662;49.128;8.520;2023-04-27T00:48:48;100551.16;;;14.40;41.37
28428;BME280;15662;49.128;8.520;2023-04-27T00:51:16;100549.66;;;14.33;41.63
28428;BME280;15662;49.128;8.520;2023-04-27T00:53:43;100534.72;;;14.29;41.65
28428;BME280;15662;49.128;8.520;2023-04-27T00:56:12;100549.03;;;14.27;41.75
28428;BME280;15662;49.128;8.520;2023-04-27T00:58:39;100540.44;;;14.18;41.86
28428;BME280;15662;49.128;8.520;2023-04-27T01:01:09;100542.22;;;14.19;41.88
28428;BME280;15662;49.128;8.520;2023-04-27T01:03:37;100545.03;;;14.15;41.97
28428;BME280;15662;49.128;8.520;2023-04-27T01:06:06;100539.06;;;14.08;42.07
28428;BME280;15662;49.128;8.520;2023-04-27T01:08:35;100549.84;;;14.05;42.01
28428;BME280;15662;49.128;8.520;2023-04-27T01:11:03;100548.28;;;14.00;41.87
28428;BME280;15662;49.128;8.520;2023-04-27T01:13:31;100548.47;;;13.93;42.11
28428;BME280;15662;49.128;8.520;2023-04-27T01:15:59;100557.31;;;13.96;42.04
28428;BME280;15662;49.128;8.520;2023-04-27T01:18:26;100555.59;;;13.93;42.19
28428;BME280;15662;49.128;8.520;2023-04-27T01:20:56;100551.50;;;13.84;42.24
28428;BME280;15662;49.128;8.520;2023-04-27T01:23:25;100565.69;;;13.85;42.35
28428;BME280;15662;49.128;8.520;2023-04-27T01:25:53;100560.56;;;13.79;42.33
28428;BME280;15662;49.128;8.520;2023-04-27T01:28:20;100559.00;;;13.73;42.46
28428;BME280;15662;49.128;8.520;2023-04-27T01:30:48;100553.03;;;13.66;42.44
28428;BME280;15662;49.128;8.520;2023-04-27T01:33:17;100558.41;;;13.65;42.45
28428;BME280;15662;49.128;8.520;2023-04-27T01:35:47;100560.63;;;13.52;42.56
28428;BME280;15662;49.128;8.520;2023-04-27T01:38:16;100553.56;;;13.51;42.43
28428;BME280;15662;49.128;8.520;2023-04-27T01:40:43;100560.69;;;13.51;42.66
28428;BME280;15662;49.128;8.520;2023-04-27T01:43:12;100551.94;;;13.47;42.42
28428;BME280;15662;49.128;8.520;2023-04-27T01:45:40;100549.66;;;13.36;42.57
28428;BME280;15662;49.128;8.520;2023-04-27T01:48:08;100557.56;;;13.38;42.44
28428;BME280;15662;49.128;8.520;2023-04-27T01:50:36;100548.81;;;13.34;42.81
28428;BME280;15662;49.128;8.520;2023-04-27T01:53:06;100552.41;;;13.33;42.63
28428;BME280;15662;49.128;8.520;2023-04-27T01:55:36;100548.88;;;13.33;42.39
28428;BME280;15662;49.128;8.520;2023-04-27T01:58:04;100556.91;;;13.31;42.67
28428;BME280;15662;49.128;8.520;2023-04-27T02:00:32;100565.47;;;13.41;42.57
28428;BME280;15662;49.128;8.520;2023-04-27T02:03:01;100557.50;;;13.39;42.66
28428;BME280;15662;49.128;8.520;2023-04-27T02:05:29;100560.06;;;13.42;42.55
28428;BME280;15662;49.128;8.520;2023-04-27T02:08:14;100556.56;;;13.42;42.67
28428;BME280;15662;49.128;8.520;2023-04-27T02:10:42;100574.97;;;13.48;42.77
28428;BME280;15662;49.128;8.520;2023-04-27T02:13:10;100572.16;;;13.53;42.74
28428;BME280;15662;49.128;8.520;2023-04-27T02:15:37;100579.19;;;13.55;42.75
28428;BME280;15662;49.128;8.520;2023-04-27T02:18:05;100570.31;;;13.55;42.79
28428;BME280;15662;49.128;8.520;2023-04-27T02:20:33;100575.47;;;13.59;42.77
28428;BME280;15662;49.128;8.520;2023-04-27T02:23:01;100570.19;;;13.58;42.55
28428;BME280;15662;49.128;8.520;2023-04-27T02:25:46;100577.22;;;13.60;42.68
28428;BME280;15662;49.128;8.520;2023-04-27T02:28:32;100563.03;;;13.60;42.60
28428;BME280;15662;49.128;8.520;2023-04-27T02:31:00;100577.09;;;13.63;42.54
28428;BME280;15662;49.128;8.520;2023-04-27T02:33:28;100577.94;;;13.65;42.42
28428;BME280;15662;49.128;8.520;2023-04-27T02:35:57;100583.13;;;13.68;42.29
28428;BME280;15662;49.128;8.520;2023-04-27T02:38:24;100573.41;;;13.67;42.17
28428;BME280;15662;49.128;8.520;2023-04-27T02:40:53;100565.41;;;13.67;42.27
28428;BME280;15662;49.128;8.520;2023-04-27T02:43:21;100570.59;;;13.72;42.25
28428;BME280;15662;49.128;8.520;2023-04-27T02:45:49;100570.59;;;13.72;42.11
28428;BME280;15662;49.128;8.520;2023-04-27T02:48:17;100564.63;;;13.65;42.04
28428;BME280;15662;49.128;8.520;2023-04-27T02:50:44;100568.94;;;13.68;41.88
28428;BME280;15662;49.128;8.520;2023-04-27T02:53:12;100581.16;;;13.75;41.92
28428;BME280;15662;49.128;8.520;2023-04-27T02:55:46;100581.06;;;13.77;41.78
28428;BME280;15662;49.128;8.520;2023-04-27T02:58:17;100577.63;;;13.75;41.92
28428;BME280;15662;49.128;8.520;2023-04-27T03:00:45;100577.78;;;13.70;41.98
28428;BME280;15662;49.128;8.520;2023-04-27T03:03:15;100589.94;;;13.77;41.78
28428;BME280;15662;49.128;8.520;2023-04-27T03:05:43;100589.94;;;13.77;41.94
28428;BME280;15662;49.128;8.520;2023-04-27T03:08:10;100584.66;;;13.76;41.76
28428;BME280;15662;49.128;8.520;2023-04-27T03:10:40;100583.75;;;13.77;41.71
28428;BME280;15662;49.128;8.520;2023-04-27T03:13:13;100585.53;;;13.76;41.76
28428;BME280;15662;49.128;8.520;2023-04-27T03:15:43;100589.94;;;13.77;41.83
28428;BME280;15662;49.128;8.520;2023-04-27T03:18:11;100585.53;;;13.76;41.70
28428;BME280;15662;49.128;8.520;2023-04-27T03:20:40;100587.34;;;13.76;41.47
28428;BME280;15662;49.128;8.520;2023-04-27T03:23:08;100582.97;;;13.73;41.59
28428;BME280;15662;49.128;8.520;2023-04-27T03:25:36;100582.97;;;13.73;41.61
28428;BME280;15662;49.128;8.520;2023-04-27T03:28:04;100588.38;;;13.72;41.61
28428;BME280;15662;49.128;8.520;2023-04-27T03:30:31;100586.88;;;13.63;41.51
28428;BME280;15662;49.128;8.520;2023-04-27T03:33:19;100585.09;;;13.63;41.47
28428;BME280;15662;49.128;8.520;2023-04-27T03:55:54;100587.00;;;13.33;41.35
28428;BME280;15662;49.128;8.520;2023-04-27T04:04:54;100596.16;;;13.25;41.29
28428;BME280;15662;49.128;8.520;2023-04-27T04:12:02;100600.75;;;13.20;41.44
28428;BME280;15662;49.128;8.520;2023-04-27T04:18:32;100607.09;;;13.15;41.50
28428;BME280;15662;49.128;8.520;2023-04-27T04:21:56;100606.34;;;13.12;41.59
28428;BME280;15662;49.128;8.520;2023-04-27T04:25:01;100602.69;;;13.14;41.58
28428;BME280;15662;49.128;8.520;2023-04-27T04:31:12;100586.88;;;13.10;41.73
28428;BME280;15662;49.128;8.520;2023-04-27T04:38:00;100596.41;;;13.17;41.61
28428;BME280;15662;49.128;8.520;2023-04-27T04:40:46;100606.00;;;13.23;41.61
28428;BME280;15662;49.128;8.520;2023-04-27T04:44:10;100617.28;;;13.31;41.32
28428;BME280;15662;49.128;8.520;2023-04-27T04:46:57;100610.19;;;13.30;41.33
28428;BME280;15662;49.128;8.520;2023-04-27T04:53:09;100611.34;;;13.23;41.52
28428;BME280;15662;49.128;8.520;2023-04-27T05:02:43;100600.84;;;13.16;41.92
28428;BME280;15662;49.128;8.520;2023-04-27T05:06:26;100614.84;;;13.23;41.79
28428;BME280;15662;49.128;8.520;2023-04-27T05:12:55;100614.63;;;13.31;41.76
28428;BME280;15662;49.128;8.520;2023-04-27T05:22:28;100624.34;;;13.32;42.00
28428;BME280;15662;49.128;8.520;2023-04-27T05:25:15;100619.88;;;13.32;42.25
28428;BME280;15662;49.128;8.520;2023-04-27T05:28:01;100634.69;;;13.41;42.00
28428;BME280;15662;49.128;8.520;2023-04-27T05:31:25;100627.72;;;13.37;41.95
28428;BME280;15662;49.128;8.520;2023-04-27T05:34:30;100635.25;;;13.51;41.95
28428;BME280;15662;49.128;8.520;2023-04-27T05:40:40;100643.91;;;13.57;42.02
28428;BME280;15662;49.128;8.520;2023-04-27T05:43:26;100639.56;;;13.55;42.22
28428;BME280;15662;49.128;8.520;2023-04-27T05:45:53;100648.84;;;13.68;42.13
28428;BME280;15662;49.128;8.520;2023-04-27T05:51:08;100648.63;;;13.76;42.11
28428;BME280;15662;49.128;8.520;2023-04-27T06:01:20;100667.75;;;13.87;42.35
28428;BME280;15662;49.128;8.520;2023-04-27T06:11:50;100666.25;;;14.05;42.32
28428;BME280;15662;49.128;8.520;2023-04-27T06:18:02;100670.25;;;14.16;42.46
28428;BME280;15662;49.128;8.520;2023-04-27T06:27:55;100668.03;;;14.54;42.08
28428;BME280;15662;49.128;8.520;2023-04-27T06:31:00;100665.72;;;14.68;41.84
28428;BME280;15662;49.128;8.520;2023-04-27T06:40:53;100681.50;;;14.98;41.50
28428;BME280;15662;49.128;8.520;2023-04-27T06:43:59;100677.00;;;14.99;41.57
28428;BME280;15662;49.128;8.520;2023-04-27T06:53:51;100675.22;;;15.21;41.26
28428;BME280;15662;49.128;8.520;2023-04-27T06:56:40;100675.72;;;15.31;41.33
28428;BME280;15662;49.128;8.520;2023-04-27T06:59:45;100673.50;;;15.42;41.40
28428;BME280;15662;49.128;8.520;2023-04-27T07:02:50;100679.19;;;15.55;41.38
28428;BME280;15662;49.128;8.520;2023-04-27T07:05:55;100669.84;;;15.66;41.31
28428;BME280;15662;49.128;8.520;2023-04-27T07:09:21;100676.56;;;15.77;41.26
28428;BME280;15662;49.128;8.520;2023-04-27T07:29:40;100681.31;;;16.31;41.49
28428;BME280;15662;49.128;8.520;2023-04-27T07:32:46;100686.38;;;16.37;41.35
28428;BME280;15662;49.128;8.520;2023-04-27T07:35:52;100675.06;;;16.51;40.80
28428;BME280;15662;49.128;8.520;2023-04-27T07:39:35;100678.66;;;16.50;40.69
28428;BME280;15662;49.128;8.520;2023-04-27T07:52:05;100671.03;;;16.61;40.32
28428;BME280;15662;49.128;8.520;2023-04-27T07:58:36;100663.09;;;16.79;40.35
28428;BME280;15662;49.128;8.520;2023-04-27T08:08:32;100663.09;;;16.97;40.28
28428;BME280;15662;49.128;8.520;2023-04-27T08:21:37;100669.75;;;17.26;39.84
28428;BME280;15662;49.128;8.520;2023-04-27T08:35:34;100665.84;;;17.51;40.02
28428;BME280;15662;49.128;8.520;2023-04-27T08:45:33;100654.94;;;17.73;39.67
28428;BME280;15662;49.128;8.520;2023-04-27T08:49:16;100657.34;;;17.79;39.73
28428;BME280;15662;49.128;8.520;2023-04-27T08:55:52;100660.31;;;18.08;39.44
28428;BME280;15662;49.128;8.520;2023-04-27T08:59:19;100660.78;;;18.16;39.45
28428;BME280;15662;49.128;8.520;2023-04-27T09:11:48;100647.53;;;18.46;38.97
28428;BME280;15662;49.128;8.520;2023-04-27T09:18:41;100653.34;;;18.71;38.48
28428;BME280;15662;49.128;8.520;2023-04-27T09:22:08;100648.88;;;18.72;38.10
28428;BME280;15662;49.128;8.520;2023-04-27T09:29:02;100653.19;;;18.90;38.35
28428;BME280;15662;49.128;8.520;2023-04-27T09:42:40;100643.69;;;19.16;38.11
28428;BME280;15662;49.128;8.520;2023-04-27T09:46:07;100636.91;;;19.25;37.72
28428;BME280;15662;49.128;8.520;2023-04-27T09:54:04;100638.94;;;19.36;38.10
28428;BME280;15662;49.128;8.520;2023-04-27T10:08:00;100631.19;;;19.77;37.67
28428;BME280;15662;49.128;8.520;2023-04-27T10:18:01;100619.53;;;20.06;36.79
28428;BME280;15662;49.128;8.520;2023-04-27T10:21:10;100617.72;;;20.07;36.51
28428;BME280;15662;49.128;8.520;2023-04-27T10:23:52;100622.13;;;20.08;36.45
28428;BME280;15662;49.128;8.520;2023-04-27T10:27:18;100610.13;;;20.14;35.98
28428;BME280;15662;49.128;8.520;2023-04-27T10:29:49;100613.50;;;20.17;36.03
28428;BME280;15662;49.128;8.520;2023-04-27T10:46:58;100608.78;;;20.64;35.16
28428;BME280;15662;49.128;8.520;2023-04-27T10:50:04;100616.22;;;20.74;35.02
28428;BME280;15662;49.128;8.520;2023-04-27T10:57:00;100610.31;;;20.82;34.94
28428;BME280;15662;49.128;8.520;2023-04-27T10:59:53;100605.59;;;20.85;34.82
28428;BME280;15662;49.128;8.520;2023-04-27T11:06:08;100597.34;;;20.89;34.40
28428;BME280;15662;49.128;8.520;2023-04-27T11:12:41;100593.06;;;20.99;33.89
28428;BME280;15662;49.128;8.520;2023-04-27T11:15:28;100602.16;;;21.10;33.84
28428;BME280;15662;49.128;8.520;2023-04-27T11:28:57;100593.03;;;21.40;33.25
28428;BME280;15662;49.128;8.520;2023-04-27T11:32:05;100581.75;;;21.48;33.06
28428;BME280;15662;49.128;8.520;2023-04-27T11:35:47;100583.72;;;21.58;33.02
28428;BME280;15662;49.128;8.520;2023-04-27T11:42:25;100574.34;;;21.77;32.64
28428;BME280;15662;49.128;8.520;2023-04-27T11:45:34;100570.47;;;21.81;32.41
28428;BME280;15662;49.128;8.520;2023-04-27T11:49:00;100564.84;;;21.84;32.52
28428;BME280;15662;49.128;8.520;2023-04-27T12:09:18;100529.78;;;22.09;31.61
28428;BME280;15662;49.128;8.520;2023-04-27T12:19:51;100526.13;;;22.23;31.66
28428;BME280;15662;49.128;8.520;2023-04-27T12:22:56;100526.72;;;22.39;31.28
28428;BME280;15662;49.128;8.520;2023-04-27T12:29:09;100528.44;;;22.53;30.75
28428;BME280;15662;49.128;8.520;2023-04-27T12:31:57;100520.97;;;22.57;30.99
28428;BME280;15662;49.128;8.520;2023-04-27T12:37:53;100527.03;;;22.84;30.36
28428;BME280;15662;49.128;8.520;2023-04-27T12:45:04;100518.69;;;22.87;30.02
28428;BME280;15662;49.128;8.520;2023-04-27T12:51:56;100519.38;;;22.91;29.54
28428;BME280;15662;49.128;8.520;2023-04-27T12:55:02;100517.28;;;22.95;29.62
28428;BME280;15662;49.128;8.520;2023-04-27T12:58:19;100515.34;;;22.97;29.93
28428;BME280;15662;49.128;8.520;2023-04-27T13:04:43;100512.63;;;23.21;29.84
28428;BME280;15662;49.128;8.520;2023-04-27T13:10:39;100504.38;;;23.22;29.34
28428;BME280;15662;49.128;8.520;2023-04-27T13:20:53;100482.13;;;23.18;29.51
28428;BME280;15662;49.128;8.520;2023-04-27T13:24:20;100485.59;;;23.21;28.93
28428;BME280;15662;49.128;8.520;2023-04-27T13:27:26;100490.22;;;23.18;28.99
28428;BME280;15662;49.128;8.520;2023-04-27T13:29:56;100492.06;;;23.18;28.89
28428;BME280;15662;49.128;8.520;2023-04-27T13:33:20;100485.34;;;23.24;28.82
28428;BME280;15662;49.128;8.520;2023-04-27T13:40:30;100489.16;;;23.21;28.85
28428;BME280;15662;49.128;8.520;2023-04-27T13:47:59;100473.09;;;23.31;28.85
28428;BME280;15662;49.128;8.520;2023-04-27T13:57:57;100482.59;;;23.48;28.62
28428;BME280;15662;49.128;8.520;2023-04-27T14:04:07;100474.66;;;23.33;28.71
28428;BME280;15662;49.128;8.520;2023-04-27T14:07:32;100490.69;;;23.36;28.39
28428;BME280;15662;49.128;8.520;2023-04-27T14:10:38;100481.44;;;23.39;28.20
28428;BME280;15662;49.128;8.520;2023-04-27T14:16:51;100488.59;;;23.40;28.20
28428;BME280;15662;49.128;8.520;2023-04-27T14:20:16;100472.59;;;23.37;28.23
28428;BME280;15662;49.128;8.520;2023-04-27T14:27:07;100473.22;;;23.40;28.26
28428;BME280;15662;49.128;8.520;2023-04-27T14:30:13;100480.34;;;23.41;28.75
28428;BME280;15662;49.128;8.520;2023-04-27T14:33:19;100471.41;;;23.52;28.41
28428;BME280;15662;49.128;8.520;2023-04-27T14:36:25;100472.63;;;23.59;28.19
28428;BME280;15662;49.128;8.520;2023-04-27T14:39:49;100467.13;;;23.61;28.15
28428;BME280;15662;49.128;8.520;2023-04-27T14:53:11;100460.72;;;23.62;27.92
28428;BME280;15662;49.128;8.520;2023-04-27T14:56:16;100459.00;;;23.61;27.87
28428;BME280;15662;49.128;8.520;2023-04-27T14:59:59;100461.31;;;23.54;27.77
28428;BME280;15662;49.128;8.520;2023-04-27T15:03:24;100459.72;;;23.52;27.88
28428;BME280;15662;49.128;8.520;2023-04-27T15:20:28;100440.06;;;23.50;28.13
28428;BME280;15662;49.128;8.520;2023-04-27T15:23:17;100439.31;;;23.59;27.48
28428;BME280;15662;49.128;8.520;2023-04-27T15:33:51;100423.28;;;23.44;28.01
28428;BME280;15662;49.128;8.520;2023-04-27T15:36:57;100424.69;;;23.50;27.80
28428;BME280;15662;49.128;8.520;2023-04-27T15:42:48;100416.66;;;23.49;27.71
28428;BME280;15662;49.128;8.520;2023-04-27T15:45:19;100403.28;;;23.47;27.97
28428;BME280;15662;49.128;8.520;2023-04-27T15:48:11;100406.47;;;23.52;27.66
28428;BME280;15662;49.128;8.520;2023-04-27T15:50:40;100401.44;;;23.48;27.82
28428;BME280;15662;49.128;8.520;2023-04-27T15:53:34;100406.47;;;23.52;27.88
28428;BME280;15662;49.128;8.520;2023-04-27T15:56:06;100401.91;;;23.53;27.59
28428;BME280;15662;49.128;8.520;2023-04-27T15:58:35;100390.75;;;23.46;27.60
28428;BME280;15662;49.128;8.520;2023-04-27T16:01:04;100392.09;;;23.52;27.80
28428;BME280;15662;49.128;8.520;2023-04-27T16:03:32;100397.63;;;23.50;27.75
28428;BME280;15662;49.128;8.520;2023-04-27T16:06:05;100387.41;;;23.54;27.82
28428;BME280;15662;49.128;8.520;2023-04-27T16:08:39;100369.19;;;23.44;27.91
28428;BME280;15662;49.128;8.520;2023-04-27T16:11:07;100375.13;;;23.50;27.55
28428;BME280;15662;49.128;8.520;2023-04-27T16:13:39;100369.97;;;23.47;27.70
28428;BME280;15662;49.128;8.520;2023-04-27T16:16:08;100368.97;;;23.48;27.83
28428;BME280;15662;49.128;8.520;2023-04-27T16:18:36;100357.03;;;23.39;27.64
28428;BME280;15662;49.128;8.520;2023-04-27T16:21:05;100364.19;;;23.40;27.59
28428;BME280;15662;49.128;8.520;2023-04-27T16:23:33;100361.56;;;23.38;27.86
28428;BME280;15662;49.128;8.520;2023-04-27T16:26:01;100360.94;;;23.35;27.54
28428;BME280;15662;49.128;8.520;2023-04-27T16:28:29;100359.50;;;23.31;27.74
28428;BME280;15662;49.128;8.520;2023-04-27T16:30:58;100353.22;;;23.30;27.80
28428;BME280;15662;49.128;8.520;2023-04-27T16:33:26;100353.31;;;23.29;27.71
28428;BME280;15662;49.128;8.520;2023-04-27T16:35:57;100351.63;;;23.28;28.04
28428;BME280;15662;49.128;8.520;2023-04-27T16:38:28;100358.38;;;23.22;27.82
28428;BME280;15662;49.128;8.520;2023-04-27T16:41:06;100355.41;;;23.14;27.92
28428;BME280;15662;49.128;8.520;2023-04-27T16:43:35;100358.47;;;23.09;27.88
28428;BME280;15662;49.128;8.520;2023-04-27T16:46:04;100353.03;;;22.98;28.01
28428;BME280;15662;49.128;8.520;2023-04-27T16:48:35;100350.34;;;22.98;28.11
28428;BME280;15662;49.128;8.520;2023-04-27T16:51:06;100355.97;;;22.95;28.06
28428;BME280;15662;49.128;8.520;2023-04-27T16:53:36;100354.50;;;22.91;28.21
28428;BME280;15662;49.128;8.520;2023-04-27T16:56:05;100360.00;;;22.89;27.94
28428;BME280;15662;49.128;8.520;2023-04-27T16:58:33;100359.25;;;22.87;28.08
28428;BME280;15662;49.128;8.520;2023-04-27T17:01:02;100360.47;;;22.83;28.04
28428;BME280;15662;49.128;8.520;2023-04-27T17:03:33;100364.16;;;22.82;28.06
28428;BME280;15662;49.128;8.520;2023-04-27T17:06:02;100352.31;;;22.72;28.01
28428;BME280;15662;49.128;8.520;2023-04-27T17:08:33;100357.47;;;22.75;28.25
28428;BME280;15662;49.128;8.520;2023-04-27T17:11:00;100360.13;;;22.64;28.33
28428;BME280;15662;49.128;8.520;2023-04-27T17:13:28;100364.69;;;22.63;28.30
28428;BME280;15662;49.128;8.520;2023-04-27T17:15:59;100361.34;;;22.60;28.29
28428;BME280;15662;49.128;8.520;2023-04-27T17:18:28;100371.16;;;22.61;28.37
28428;BME280;15662;49.128;8.520;2023-04-27T17:20:56;100355.34;;;22.56;28.44
28428;BME280;15662;49.128;8.520;2023-04-27T17:23:24;100352.22;;;22.50;28.47
28428;BME280;15662;49.128;8.520;2023-04-27T17:25:52;100359.69;;;22.46;28.50
28428;BME280;15662;49.128;8.520;2023-04-27T17:28:21;100354.88;;;22.38;28.77
28428;BME280;15662;49.128;8.520;2023-04-27T17:30:51;100347.25;;;22.32;28.76
28428;BME280;15662;49.128;8.520;2023-04-27T17:33:20;100355.44;;;22.31;28.80
28428;BME280;15662;49.128;8.520;2023-04-27T17:35:49;100352.13;;;22.27;28.89
28428;BME280;15662;49.128;8.520;2023-04-27T17:38:17;100344.25;;;22.24;29.10
28428;BME280;15662;49.128;8.520;2023-04-27T17:40:46;100347.69;;;22.26;29.14
28428;BME280;15662;49.128;8.520;2023-04-27T17:43:16;100352.69;;;22.20;29.16
28428;BME280;15662;49.128;8.520;2023-04-27T17:45:45;100358.94;;;22.20;29.41
28428;BME280;15662;49.128;8.520;2023-04-27T17:52:16;100363.22;;;21.99;30.75
28428;BME280;15662;49.128;8.520;2023-04-27T17:55:03;100367.03;;;21.83;31.14
28428;BME280;15662;49.128;8.520;2023-04-27T17:57:50;100366.72;;;21.75;31.65
28428;BME280;15662;49.128;8.520;2023-04-27T18:04:22;100368.03;;;21.57;31.63
28428;BME280;15662;49.128;8.520;2023-04-27T18:08:06;100372.25;;;21.48;31.88
28428;BME280;15662;49.128;8.520;2023-04-27T18:11:11;100362.34;;;21.49;31.57
28428;BME280;15662;49.128;8.520;2023-04-27T18:14:17;100359.00;;;21.45;31.46
28428;BME280;15662;49.128;8.520;2023-04-27T18:18:00;100353.19;;;21.38;31.21
28428;BME280;15662;49.128;8.520;2023-04-27T18:21:47;100347.34;;;21.32;31.42
28428;BME280;15662;49.128;8.520;2023-04-27T18:25:32;100348.59;;;21.26;31.39
28428;BME280;15662;49.128;8.520;2023-04-27T18:28:58;100344.50;;;21.21;31.16
28428;BME280;15662;49.128;8.520;2023-04-27T18:31:47;100350.22;;;21.16;31.43
28428;BME280;15662;49.128;8.520;2023-04-27T18:35:11;100347.19;;;21.08;31.41
28428;BME280;15662;49.128;8.520;2023-04-27T18:48:34;100358.94;;;20.94;31.84
28428;BME280;15662;49.128;8.520;2023-04-27T18:51:33;100360.00;;;20.92;32.07
28428;BME280;15662;49.128;8.520;2023-04-27T18:54:39;100360.25;;;20.89;32.36
28428;BME280;15662;49.128;8.520;2023-04-27T19:04:15;100347.00;;;20.58;33.53
28428;BME280;15662;49.128;8.520;2023-04-27T19:06:48;100361.69;;;20.67;34.18
28428;BME280;15662;49.128;8.520;2023-04-27T19:16:10;100352.69;;;20.54;33.68
28428;BME280;15662;49.128;8.520;2023-04-27T19:18:59;100351.22;;;20.50;33.31
28428;BME280;15662;49.128;8.520;2023-04-27T19:21:46;100360.22;;;20.49;33.65
28428;BME280;15662;49.128;8.520;2023-04-27T19:29:09;100355.44;;;20.40;33.36
28428;BME280;15662;49.128;8.520;2023-04-27T19:32:02;100336.69;;;20.38;33.25
28428;BME280;15662;49.128;8.520;2023-04-27T19:35:29;100354.56;;;20.39;33.38
28428;BME280;15662;49.128;8.520;2023-04-27T19:43:14;100350.88;;;20.27;33.56
28428;BME280;15662;49.128;8.520;2023-04-27T19:46:20;100357.97;;;20.28;33.48
28428;BME280;15662;49.128;8.520;2023-04-27T19:49:30;100352.16;;;20.22;33.59
28428;BME280;15662;49.128;8.520;2023-04-27T19:52:23;100345.03;;;20.21;33.76
28428;BME280;15662;49.128;8.520;2023-04-27T19:54:53;100343.41;;;20.18;33.69
28428;BME280;15662;49.128;8.520;2023-04-27T19:57:25;100352.16;;;20.22;34.08
28428;BME280;15662;49.128;8.520;2023-04-27T19:59:54;100360.97;;;20.24;34.26
28428;BME280;15662;49.128;8.520;2023-04-27T20:02:24;100359.34;;;20.21;34.22
28428;BME280;15662;49.128;8.520;2023-04-27T20:04:58;100350.91;;;20.13;34.13
28428;BME280;15662;49.128;8.520;2023-04-27T20:07:26;100341.97;;;20.13;34.02
28428;BME280;15662;49.128;8.520;2023-04-27T20:09:57;100342.94;;;20.12;34.36
28428;BME280;15662;49.128;8.520;2023-04-27T20:12:25;100348.44;;;20.10;34.55
28428;BME280;15662;49.128;8.520;2023-04-27T20:15:13;100352.28;;;20.06;35.12
28428;BME280;15662;49.128;8.520;2023-04-27T20:17:42;100353.03;;;20.08;35.31
28428;BME280;15662;49.128;8.520;2023-04-27T20:20:13;100343.44;;;20.04;35.76
28428;BME280;15662;49.128;8.520;2023-04-27T20:22:42;100348.19;;;20.00;35.89
28428;BME280;15662;49.128;8.520;2023-04-27T20:25:13;100338.88;;;19.92;35.70
28428;BME280;15662;49.128;8.520;2023-04-27T20:27:42;100333.97;;;19.84;36.27
28428;BME280;15662;49.128;8.520;2023-04-27T20:30:10;100335.63;;;19.87;36.39
28428;BME280;15662;49.128;8.520;2023-04-27T20:32:43;100322.09;;;19.74;36.47
28428;BME280;15662;49.128;8.520;2023-04-27T20:35:12;100332.00;;;19.73;36.83
28428;BME280;15662;49.128;8.520;2023-04-27T20:37:40;100325.94;;;19.70;37.00
28428;BME280;15662;49.128;8.520;2023-04-27T20:40:11;100321.06;;;19.62;37.10
28428;BME280;15662;49.128;8.520;2023-04-27T20:42:43;100319.13;;;19.64;37.34
28428;BME280;15662;49.128;8.520;2023-04-27T20:45:12;100326.56;;;19.61;37.56
28428;BME280;15662;49.128;8.520;2023-04-27T20:47:41;100329.50;;;19.56;37.73
28428;BME280;15662;49.128;8.520;2023-04-27T20:50:12;100306.19;;;19.42;38.09
28428;BME280;15662;49.128;8.520;2023-04-27T20:52:40;100327.69;;;19.42;38.32
28428;BME280;15662;49.128;8.520;2023-04-27T20:55:10;100328.81;;;19.38;38.45
28428;BME280;15662;49.128;8.520;2023-04-27T20:57:47;100320.66;;;19.25;38.71
28428;BME280;15662;49.128;8.520;2023-04-27T21:00:16;100325.09;;;19.26;38.80
28428;BME280;15662;49.128;8.520;2023-04-27T21:02:45;100314.91;;;19.17;38.89
28428;BME280;15662;49.128;8.520;2023-04-27T21:05:15;100313.19;;;19.16;38.99
28428;BME280;15662;49.128;8.520;2023-04-27T21:07:46;100315.19;;;18.98;38.75
28428;BME280;15662;49.128;8.520;2023-04-27T21:10:16;100318.16;;;19.08;38.81
28428;BME280;15662;49.128;8.520;2023-04-27T21:12:44;100307.81;;;19.02;39.17
28428;BME280;15662;49.128;8.520;2023-04-27T21:15:13;100314.69;;;19.06;39.08
28428;BME280;15662;49.128;8.520;2023-04-27T21:17:42;100317.59;;;19.03;39.09
28428;BME280;15662;49.128;8.520;2023-04-27T21:20:10;100309.72;;;19.00;38.96
28428;BME280;15662;49.128;8.520;2023-04-27T21:22:40;100310.78;;;18.97;39.05